sensor_id;sensor_type;location;lat;lon;timestamp;temperature;humidity
13433;DHT22;6789;47.678;9.158;2023-05-24T00:04:39;15.30;99.90
13433;DHT22;6789;47.678;9.158;2023-05-24T00:09:32;15.40;99.90
13433;DHT22;6789;47.678;9.158;2023-05-24T00:14:24;15.30;99.90
13433;DHT22;6789;47.678;9.158;2023-05-24T00:19:16;15.40;99.90
13433;DHT22;6789;47.678;9.158;2023-05-24T00:24:09;15.40;99.90
13433;DHT22;6789;47.678;9.158;2023-05-24T00:29:01;15.20;99.90
13433;DHT22;6789;47.678;9.158;2023-05-24T00:33:53;15.20;99.90
13433;DHT22;6789;47.678;9.158;2023-05-24T00:38:45;15.30;99.90
13433;DHT22;6789;47.678;9.158;2023-05-24T00:43:37;15.40;99.90
13433;DHT22;6789;47.678;9.158;2023-05-24T00:48:29;15.20;99.90
13433;DHT22;6789;47.678;9.158;2023-05-24T00:53:20;15.20;99.90
13433;DHT22;6789;47.678;9.158;2023-05-24T00:58:13;15.20;99.90
13433;DHT22;6789;47.678;9.158;2023-05-24T01:03:06;15.10;99.90
13433;DHT22;6789;47.678;9.158;2023-05-24T01:08:03;15.10;99.90
13433;DHT22;6789;47.678;9.158;2023-05-24T01:13:25;15.00;99.90
13433;DHT22;6789;47.678;9.158;2023-05-24T01:18:30;15.10;99.90
13433;DHT22;6789;47.678;9.158;2023-05-24T01:23:31;15.00;99.90
13433;DHT22;6789;47.678;9.158;2023-05-24T01:28:44;15.10;99.90
13433;DHT22;6789;47.678;9.158;2023-05-24T01:33:42;15.10;99.90
13433;DHT22;6789;47.678;9.158;2023-05-24T01:43:37;15.00;99.90
13433;DHT22;6789;47.678;9.158;2023-05-24T01:49:21;15.10;99.90
13433;DHT22;6789;47.678;9.158;2023-05-24T01:54:22;15.00;99.90
13433;DHT22;6789;47.678;9.158;2023-05-24T01:59:16;14.90;99.90
13433;DHT22;6789;47.678;9.158;2023-05-24T02:04:09;14.80;99.90
13433;DHT22;6789;47.678;9.158;2023-05-24T02:09:01;14.80;99.90
13433;DHT22;6789;47.678;9.158;2023-05-24T02:13:53;14.80;99.90
13433;DHT22;6789;47.678;9.158;2023-05-24T02:18:44;14.90;99.90
13433;DHT22;6789;47.678;9.158;2023-05-24T02:23:37;15.00;99.90
13433;DHT22;6789;47.678;9.158;2023-05-24T02:28:29;15.00;99.90
13433;DHT22;6789;47.678;9.158;2023-05-24T02:33:22;14.90;99.90
13433;DHT22;6789;47.678;9.158;2023-05-24T02:38:17;15.00;99.90
13433;DHT22;6789;47.678;9.158;2023-05-24T02:43:08;15.00;99.90
13433;DHT22;6789;47.678;9.158;2023-05-24T02:48:00;15.00;99.90
13433;DHT22;6789;47.678;9.158;2023-05-24T02:52:52;14.90;99.90
13433;DHT22;6789;47.678;9.158;2023-05-24T02:57:44;14.80;99.90
13433;DHT22;6789;47.678;9.158;2023-05-24T03:02:36;14.90;99.90
13433;DHT22;6789;47.678;9.158;2023-05-24T03:07:29;14.90;99.90
13433;DHT22;6789;47.678;9.158;2023-05-24T03:12:21;15.00;99.90
13433;DHT22;6789;47.678;9.158;2023-05-24T03:17:12;14.90;99.90
13433;DHT22;6789;47.678;9.158;2023-05-24T03:22:04;15.00;99.90
13433;DHT22;6789;47.678;9.158;2023-05-24T03:26:56;14.90;99.90
13433;DHT22;6789;47.678;9.158;2023-05-24T03:31:48;14.70;99.90
13433;DHT22;6789;47.678;9.158;2023-05-24T03:36:40;14.70;99.90
13433;DHT22;6789;47.678;9.158;2023-05-24T03:41:32;14.70;99.90
13433;DHT22;6789;47.678;9.158;2023-05-24T03:46:24;14.70;99.90
13433;DHT22;6789;47.678;9.158;2023-05-24T03:51:16;14.70;99.90
13433;DHT22;6789;47.678;9.158;2023-05-24T03:56:07;14.60;99.90
13433;DHT22;6789;47.678;9.158;2023-05-24T04:00:59;14.60;99.90
13433;DHT22;6789;47.678;9.158;2023-05-24T04:06:05;14.60;99.90
13433;DHT22;6789;47.678;9.158;2023-05-24T04:10:57;14.60;99.90
13433;DHT22;6789;47.678;9.158;2023-05-24T04:15:49;14.70;99.90
13433;DHT22;6789;47.678;9.158;2023-05-24T04:20:41;14.90;99.90
13433;DHT22;6789;47.678;9.158;2023-05-24T04:25:33;14.70;99.90
13433;DHT22;6789;47.678;9.158;2023-05-24T04:30:31;14.40;99.90
13433;DHT22;6789;47.678;9.158;2023-05-24T04:41:34;13.60;99.90
13433;DHT22;6789;47.678;9.158;2023-05-24T04:46:26;13.70;99.90
13433;DHT22;6789;47.678;9.158;2023-05-24T04:51:20;13.60;99.90
13433;DHT22;6789;47.678;9.158;2023-05-24T04:56:50;13.30;99.90
13433;DHT22;6789;47.678;9.158;2023-05-24T05:01:58;13.20;99.90
13433;DHT22;6789;47.678;9.158;2023-05-24T05:07:12;13.10;99.90
13433;DHT22;6789;47.678;9.158;2023-05-24T05:12:20;13.10;99.90
13433;DHT22;6789;47.678;9.158;2023-05-24T05:17:20;12.90;99.90
13433;DHT22;6789;47.678;9.158;2023-05-24T05:22:26;12.80;99.90
13433;DHT22;6789;47.678;9.158;2023-05-24T05:27:36;12.90;99.90
13433;DHT22;6789;47.678;9.158;2023-05-24T05:32:36;12.80;99.90
13433;DHT22;6789;47.678;9.158;2023-05-24T05:37:31;12.80;99.90
13433;DHT22;6789;47.678;9.158;2023-05-24T05:42:23;12.70;99.90
13433;DHT22;6789;47.678;9.158;2023-05-24T05:52:48;12.50;99.90
13433;DHT22;6789;47.678;9.158;2023-05-24T05:58:08;12.60;99.90
13433;DHT22;6789;47.678;9.158;2023-05-24T06:09:21;12.60;99.90
13433;DHT22;6789;47.678;9.158;2023-05-24T06:20:13;12.60;99.90
13433;DHT22;6789;47.678;9.158;2023-05-24T06:25:07;13.00;99.90
13433;DHT22;6789;47.678;9.158;2023-05-24T06:29:59;13.00;99.90
13433;DHT22;6789;47.678;9.158;2023-05-24T06:34:51;13.20;99.90
13433;DHT22;6789;47.678;9.158;2023-05-24T06:39:43;14.30;99.90
13433;DHT22;6789;47.678;9.158;2023-05-24T06:44:34;14.20;99.90
13433;DHT22;6789;47.678;9.158;2023-05-24T06:49:27;13.60;99.90
13433;DHT22;6789;47.678;9.158;2023-05-24T06:54:19;13.80;99.90
13433;DHT22;6789;47.678;9.158;2023-05-24T06:59:12;13.80;99.90
13433;DHT22;6789;47.678;9.158;2023-05-24T07:04:08;13.80;99.90
13433;DHT22;6789;47.678;9.158;2023-05-24T07:09:00;14.30;99.90
13433;DHT22;6789;47.678;9.158;2023-05-24T07:13:56;14.70;99.90
13433;DHT22;6789;47.678;9.158;2023-05-24T07:19:36;14.70;99.90
13433;DHT22;6789;47.678;9.158;2023-05-24T07:25:13;14.30;99.90
13433;DHT22;6789;47.678;9.158;2023-05-24T07:37:06;13.90;99.90
13433;DHT22;6789;47.678;9.158;2023-05-24T07:42:41;13.80;99.90
13433;DHT22;6789;47.678;9.158;2023-05-24T07:48:18;13.60;99.90
13433;DHT22;6789;47.678;9.158;2023-05-24T07:53:41;13.60;99.90
13433;DHT22;6789;47.678;9.158;2023-05-24T07:59:38;13.60;99.90
13433;DHT22;6789;47.678;9.158;2023-05-24T08:05:30;13.70;99.90
13433;DHT22;6789;47.678;9.158;2023-05-24T08:49:36;13.90;99.90
13433;DHT22;6789;47.678;9.158;2023-05-24T09:13:01;13.90;99.90
13433;DHT22;6789;47.678;9.158;2023-05-24T09:19:30;14.10;99.90
13433;DHT22;6789;47.678;9.158;2023-05-24T09:25:48;13.90;99.90
13433;DHT22;6789;47.678;9.158;2023-05-24T09:31:33;13.80;99.90
13433;DHT22;6789;47.678;9.158;2023-05-24T09:37:48;13.80;99.90
13433;DHT22;6789;47.678;9.158;2023-05-24T09:43:57;13.90;99.90
13433;DHT22;6789;47.678;9.158;2023-05-24T10:08:51;14.30;99.90
13433;DHT22;6789;47.678;9.158;2023-05-24T10:15:25;14.10;99.90
13433;DHT22;6789;47.678;9.158;2023-05-24T10:54:28;14.20;99.90
13433;DHT22;6789;47.678;9.158;2023-05-24T11:07:00;14.20;99.90
13433;DHT22;6789;47.678;9.158;2023-05-24T11:12:29;14.40;99.90
13433;DHT22;6789;47.678;9.158;2023-05-24T11:36:51;15.20;99.90
13433;DHT22;6789;47.678;9.158;2023-05-24T11:55:11;15.40;99.90
13433;DHT22;6789;47.678;9.158;2023-05-24T12:00:30;16.00;99.90
13433;DHT22;6789;47.678;9.158;2023-05-24T12:12:28;16.90;99.90
13433;DHT22;6789;47.678;9.158;2023-05-24T12:17:46;17.10;99.90
13433;DHT22;6789;47.678;9.158;2023-05-24T12:23:00;17.70;99.90
13433;DHT22;6789;47.678;9.158;2023-05-24T12:35:04;18.10;99.90
13433;DHT22;6789;47.678;9.158;2023-05-24T12:40:18;17.90;99.90
13433;DHT22;6789;47.678;9.158;2023-05-24T12:45:27;18.20;99.90
13433;DHT22;6789;47.678;9.158;2023-05-24T12:50:35;18.20;99.90
13433;DHT22;6789;47.678;9.158;2023-05-24T12:55:42;17.80;99.90
13433;DHT22;6789;47.678;9.158;2023-05-24T13:01:24;17.70;99.90
13433;DHT22;6789;47.678;9.158;2023-05-24T13:06:34;18.00;99.90
13433;DHT22;6789;47.678;9.158;2023-05-24T13:11:46;17.60;99.90
13433;DHT22;6789;47.678;9.158;2023-05-24T13:16:52;17.80;99.90
13433;DHT22;6789;47.678;9.158;2023-05-24T13:21:59;17.20;99.90
13433;DHT22;6789;47.678;9.158;2023-05-24T13:27:26;16.70;99.90
13433;DHT22;6789;47.678;9.158;2023-05-24T13:32:43;16.10;99.90
13433;DHT22;6789;47.678;9.158;2023-05-24T13:37:57;16.20;99.90
13433;DHT22;6789;47.678;9.158;2023-05-24T13:43:07;16.10;99.90
13433;DHT22;6789;47.678;9.158;2023-05-24T13:48:40;16.10;99.90
13433;DHT22;6789;47.678;9.158;2023-05-24T13:53:49;16.00;99.90
13433;DHT22;6789;47.678;9.158;2023-05-24T13:59:00;16.10;99.90
13433;DHT22;6789;47.678;9.158;2023-05-24T14:04:39;16.10;99.90
13433;DHT22;6789;47.678;9.158;2023-05-24T14:09:48;16.40;99.90
13433;DHT22;6789;47.678;9.158;2023-05-24T14:25:28;16.10;99.90
13433;DHT22;6789;47.678;9.158;2023-05-24T14:30:42;16.40;99.90
13433;DHT22;6789;47.678;9.158;2023-05-24T14:35:50;16.30;99.90
13433;DHT22;6789;47.678;9.158;2023-05-24T14:41:18;16.30;99.90
13433;DHT22;6789;47.678;9.158;2023-05-24T14:51:47;16.60;99.90
13433;DHT22;6789;47.678;9.158;2023-05-24T15:03:45;16.00;99.90
13433;DHT22;6789;47.678;9.158;2023-05-24T15:09:01;16.00;99.90
13433;DHT22;6789;47.678;9.158;2023-05-24T15:14:09;15.90;99.90
13433;DHT22;6789;47.678;9.158;2023-05-24T15:19:17;15.70;99.90
13433;DHT22;6789;47.678;9.158;2023-05-24T15:24:30;15.40;99.90
13433;DHT22;6789;47.678;9.158;2023-05-24T15:29:50;15.40;99.90
13433;DHT22;6789;47.678;9.158;2023-05-24T15:35:33;15.40;99.90
13433;DHT22;6789;47.678;9.158;2023-05-24T15:40:57;15.40;99.90
13433;DHT22;6789;47.678;9.158;2023-05-24T15:46:03;15.30;99.90
13433;DHT22;6789;47.678;9.158;2023-05-24T15:51:11;15.30;99.90
13433;DHT22;6789;47.678;9.158;2023-05-24T15:56:07;15.10;99.90
13433;DHT22;6789;47.678;9.158;2023-05-24T16:01:14;15.00;99.90
13433;DHT22;6789;47.678;9.158;2023-05-24T16:06:21;14.90;99.90
13433;DHT22;6789;47.678;9.158;2023-05-24T16:11:27;14.80;99.90
13433;DHT22;6789;47.678;9.158;2023-05-24T16:16:33;14.60;99.90
13433;DHT22;6789;47.678;9.158;2023-05-24T16:21:41;14.60;99.90
13433;DHT22;6789;47.678;9.158;2023-05-24T16:26:48;14.70;99.90
13433;DHT22;6789;47.678;9.158;2023-05-24T16:31:40;14.50;99.90
13433;DHT22;6789;47.678;9.158;2023-05-24T16:36:45;14.50;99.90
13433;DHT22;6789;47.678;9.158;2023-05-24T16:41:52;14.40;99.90
13433;DHT22;6789;47.678;9.158;2023-05-24T16:46:44;14.40;99.90
13433;DHT22;6789;47.678;9.158;2023-05-24T16:51:37;14.40;99.90
13433;DHT22;6789;47.678;9.158;2023-05-24T16:56:28;14.40;99.90
13433;DHT22;6789;47.678;9.158;2023-05-24T17:01:21;14.40;99.90
13433;DHT22;6789;47.678;9.158;2023-05-24T17:06:27;14.40;99.90
13433;DHT22;6789;47.678;9.158;2023-05-24T17:11:19;14.30;99.90
13433;DHT22;6789;47.678;9.158;2023-05-24T17:16:11;14.30;99.90
13433;DHT22;6789;47.678;9.158;2023-05-24T17:21:04;14.10;99.90
13433;DHT22;6789;47.678;9.158;2023-05-24T17:25:57;14.10;99.90
13433;DHT22;6789;47.678;9.158;2023-05-24T17:30:49;14.10;99.90
13433;DHT22;6789;47.678;9.158;2023-05-24T17:35:58;14.10;99.90
13433;DHT22;6789;47.678;9.158;2023-05-24T17:41:20;14.00;99.90
13433;DHT22;6789;47.678;9.158;2023-05-24T17:46:12;14.10;99.90
13433;DHT22;6789;47.678;9.158;2023-05-24T17:51:44;13.90;99.90
13433;DHT22;6789;47.678;9.158;2023-05-24T17:57:16;14.00;99.90
13433;DHT22;6789;47.678;9.158;2023-05-24T18:02:09;14.20;99.90
13433;DHT22;6789;47.678;9.158;2023-05-24T18:07:16;14.00;99.90
13433;DHT22;6789;47.678;9.158;2023-05-24T18:12:22;14.00;99.90
13433;DHT22;6789;47.678;9.158;2023-05-24T18:17:14;14.10;99.90
13433;DHT22;6789;47.678;9.158;2023-05-24T18:22:23;14.00;99.90
13433;DHT22;6789;47.678;9.158;2023-05-24T18:27:51;13.90;99.90
13433;DHT22;6789;47.678;9.158;2023-05-24T18:33:00;13.90;99.90
13433;DHT22;6789;47.678;9.158;2023-05-24T18:38:29;14.00;99.90
13433;DHT22;6789;47.678;9.158;2023-05-24T18:43:39;13.90;99.90
13433;DHT22;6789;47.678;9.158;2023-05-24T19:09:44;13.60;99.90
13433;DHT22;6789;47.678;9.158;2023-05-24T19:14:50;13.60;99.90
13433;DHT22;6789;47.678;9.158;2023-05-24T19:19:56;13.60;99.90
13433;DHT22;6789;47.678;9.158;2023-05-24T19:25:02;13.50;99.90
13433;DHT22;6789;47.678;9.158;2023-05-24T19:30:10;13.40;99.90
13433;DHT22;6789;47.678;9.158;2023-05-24T19:35:03;13.30;99.90
13433;DHT22;6789;47.678;9.158;2023-05-24T19:39:55;13.30;99.90
13433;DHT22;6789;47.678;9.158;2023-05-24T19:45:02;13.30;99.90
13433;DHT22;6789;47.678;9.158;2023-05-24T19:49:55;13.30;99.90
13433;DHT22;6789;47.678;9.158;2023-05-24T20:00:08;13.20;99.90
13433;DHT22;6789;47.678;9.158;2023-05-24T20:05:00;13.30;99.90
13433;DHT22;6789;47.678;9.158;2023-05-24T20:09:51;13.20;99.90
13433;DHT22;6789;47.678;9.158;2023-05-24T20:14:44;13.10;99.90
13433;DHT22;6789;47.678;9.158;2023-05-24T20:19:50;13.10;99.90
13433;DHT22;6789;47.678;9.158;2023-05-24T20:24:55;13.00;99.90
13433;DHT22;6789;47.678;9.158;2023-05-24T20:34:56;13.00;99.90
13433;DHT22;6789;47.678;9.158;2023-05-24T20:39:50;12.90;99.90
13433;DHT22;6789;47.678;9.158;2023-05-24T20:44:56;12.90;99.90
13433;DHT22;6789;47.678;9.158;2023-05-24T20:49:48;12.90;99.90
13433;DHT22;6789;47.678;9.158;2023-05-24T20:54:40;12.90;99.90
13433;DHT22;6789;47.678;9.158;2023-05-24T20:59:32;12.80;99.90
13433;DHT22;6789;47.678;9.158;2023-05-24T21:04:31;12.80;99.90
13433;DHT22;6789;47.678;9.158;2023-05-24T21:09:50;12.70;99.90
13433;DHT22;6789;47.678;9.158;2023-05-24T21:14:55;12.60;99.90
13433;DHT22;6789;47.678;9.158;2023-05-24T21:20:23;12.70;99.90
13433;DHT22;6789;47.678;9.158;2023-05-24T21:25:14;12.60;99.90
13433;DHT22;6789;47.678;9.158;2023-05-24T21:30:07;12.50;99.90
13433;DHT22;6789;47.678;9.158;2023-05-24T21:34:59;12.50;99.90
13433;DHT22;6789;47.678;9.158;2023-05-24T21:40:05;12.60;99.90
13433;DHT22;6789;47.678;9.158;2023-05-24T21:44:57;12.60;99.90
13433;DHT22;6789;47.678;9.158;2023-05-24T21:49:50;12.60;99.90
13433;DHT22;6789;47.678;9.158;2023-05-24T21:54:56;12.60;99.90
13433;DHT22;6789;47.678;9.158;2023-05-24T21:59:48;12.70;99.90
13433;DHT22;6789;47.678;9.158;2023-05-24T22:26:49;12.70;99.90
13433;DHT22;6789;47.678;9.158;2023-05-24T22:31:57;12.70;99.90
13433;DHT22;6789;47.678;9.158;2023-05-24T22:37:04;12.70;99.90
13433;DHT22;6789;47.678;9.158;2023-05-24T22:42:31;12.80;99.90
13433;DHT22;6789;47.678;9.158;2023-05-24T22:47:37;12.80;99.90
13433;DHT22;6789;47.678;9.158;2023-05-24T22:52:44;12.80;99.90
13433;DHT22;6789;47.678;9.158;2023-05-24T22:57:50;12.80;99.90
13433;DHT22;6789;47.678;9.158;2023-05-24T23:02:56;12.80;99.90
13433;DHT22;6789;47.678;9.158;2023-05-24T23:07:48;12.80;99.90
13433;DHT22;6789;47.678;9.158;2023-05-24T23:12:40;12.80;99.90
13433;DHT22;6789;47.678;9.158;2023-05-24T23:17:32;12.80;99.90
13433;DHT22;6789;47.678;9.158;2023-05-24T23:22:24;12.80;99.90
13433;DHT22;6789;47.678;9.158;2023-05-24T23:27:18;12.70;99.90
13433;DHT22;6789;47.678;9.158;2023-05-24T23:32:24;12.70;99.90
13433;DHT22;6789;47.678;9.158;2023-05-24T23:37:16;12.60;99.90
13433;DHT22;6789;47.678;9.158;2023-05-24T23:42:08;12.60;99.90
13433;DHT22;6789;47.678;9.158;2023-05-24T23:47:00;12.60;99.90
13433;DHT22;6789;47.678;9.158;2023-05-24T23:51:53;12.50;99.90
13433;DHT22;6789;47.678;9.158;2023-05-24T23:56:45;12.60;99.90
